createdAt,value
2018-06-07T00:00:09.486Z,86.30
2018-06-07T00:02:38.493Z,86.30
2018-06-07T00:05:07.544Z,86.40
2018-06-07T00:07:37.053Z,85.90
2018-06-07T00:10:05.979Z,86.60
2018-06-07T00:12:34.922Z,87.20
2018-06-07T00:15:03.904Z,87.50
2018-06-07T00:17:32.869Z,87.70
2018-06-07T00:20:01.800Z,87.80
2018-06-07T00:22:30.731Z,88.50
2018-06-07T00:24:59.666Z,89.30
2018-06-07T00:27:28.763Z,88.50
2018-06-07T00:29:57.695Z,89.20
2018-06-07T00:32:26.674Z,89.40
2018-06-07T00:34:55.607Z,88.80
2018-06-07T00:37:24.562Z,90.10
2018-06-07T00:39:53.483Z,89.90
2018-06-07T00:42:22.442Z,89.30
2018-06-07T00:44:51.370Z,89.30
2018-06-07T00:47:20.330Z,89.50
2018-06-07T00:49:49.328Z,89.60
2018-06-07T00:52:18.302Z,90.00
2018-06-07T00:54:47.221Z,90.80
2018-06-07T00:59:44.602Z,91.20
2018-06-07T01:02:13.538Z,90.60
2018-06-07T01:04:42.554Z,90.60
2018-06-07T01:07:11.610Z,90.70
2018-06-07T01:09:40.558Z,91.30
2018-06-07T01:12:09.541Z,91.80
2018-06-07T01:14:38.441Z,92.20
2018-06-07T01:17:07.384Z,92.00
2018-06-07T01:19:36.285Z,92.20
2018-06-07T01:22:05.316Z,91.30
2018-06-07T01:24:34.242Z,90.90
2018-06-07T01:27:03.236Z,91.30
2018-06-07T01:29:43.466Z,91.00
2018-06-07T01:33:27.399Z,91.00
2018-06-07T01:35:57.103Z,91.60
2018-06-07T01:41:00.276Z,91.90
2018-06-07T01:43:29.446Z,91.70
2018-06-07T01:45:58.377Z,91.90
2018-06-07T01:48:27.282Z,92.00
2018-06-07T01:50:56.213Z,92.20
2018-06-07T01:53:25.269Z,92.80
2018-06-07T01:55:54.268Z,92.60
2018-06-07T01:58:23.193Z,92.80
2018-06-07T02:00:52.133Z,93.10
2018-06-07T02:05:49.512Z,94.10
2018-06-07T02:08:18.468Z,93.40
2018-06-07T02:10:47.413Z,93.30
2018-06-07T02:13:16.490Z,93.90
2018-06-07T02:15:45.441Z,93.30
2018-06-07T02:18:14.377Z,93.40
2018-06-07T02:20:43.316Z,93.60
2018-06-07T02:23:12.235Z,93.80
2018-06-07T02:25:41.150Z,94.30
2018-06-07T02:28:10.149Z,94.40
2018-06-07T02:30:39.134Z,94.20
2018-06-07T02:33:08.079Z,94.70
2018-06-07T02:35:36.975Z,94.40
2018-06-07T02:38:05.934Z,94.20
2018-06-07T02:40:34.877Z,94.20
2018-06-07T02:43:03.821Z,93.80
2018-06-07T02:45:32.767Z,93.50
2018-06-07T02:48:01.751Z,93.40
2018-06-07T02:50:30.678Z,93.30
2018-06-07T02:52:59.789Z,93.30
2018-06-07T02:55:28.797Z,93.20
2018-06-07T02:57:57.741Z,93.40
2018-06-07T03:00:26.660Z,94.40
2018-06-07T03:02:55.582Z,93.60
2018-06-07T03:05:24.687Z,92.90
2018-06-07T03:07:53.726Z,93.30
2018-06-07T03:10:22.671Z,93.50
2018-06-07T03:12:51.577Z,94.10
2018-06-07T03:15:20.525Z,93.70
2018-06-07T03:17:49.460Z,93.20
2018-06-07T03:22:47.002Z,93.20
2018-06-07T03:25:16.010Z,93.00
2018-06-07T03:30:13.422Z,93.40
2018-06-07T03:32:42.565Z,94.20
2018-06-07T03:35:11.483Z,94.10
2018-06-07T03:37:40.431Z,93.80
2018-06-07T03:40:09.459Z,93.90
2018-06-07T03:42:38.417Z,93.60
2018-06-07T03:45:07.350Z,93.50
2018-06-07T03:47:36.286Z,93.90
2018-06-07T03:50:05.531Z,93.60
2018-06-07T03:52:34.500Z,93.60
2018-06-07T03:55:03.516Z,93.40
2018-06-07T03:57:32.448Z,93.90
2018-06-07T04:00:01.531Z,93.50
2018-06-07T04:04:58.968Z,93.10
2018-06-07T04:07:27.949Z,92.50
2018-06-07T04:09:56.870Z,92.40
2018-06-07T04:12:25.818Z,92.20
2018-06-07T04:14:54.894Z,92.00
2018-06-07T04:17:23.904Z,91.70
2018-06-07T04:19:52.800Z,91.50
2018-06-07T04:22:21.699Z,91.30
2018-06-07T04:24:50.635Z,91.20
2018-06-07T04:27:19.590Z,91.10
2018-06-07T04:29:48.808Z,91.10
2018-06-07T04:32:17.826Z,91.20
2018-06-07T04:34:46.802Z,91.40
2018-06-07T04:37:15.738Z,91.50
2018-06-07T04:39:44.661Z,91.90
2018-06-07T04:42:13.627Z,91.90
2018-06-07T04:44:42.653Z,92.10
2018-06-07T04:49:40.129Z,92.00
2018-06-07T04:52:09.073Z,92.10
2018-06-07T04:54:38.010Z,92.00
2018-06-07T04:57:06.973Z,92.00
2018-06-07T04:59:35.890Z,92.20
2018-06-07T05:02:04.777Z,92.40
2018-06-07T05:04:33.742Z,92.60
2018-06-07T05:07:02.796Z,92.60
2018-06-07T05:09:31.723Z,92.60
2018-06-07T05:12:00.632Z,92.60
2018-06-07T05:14:29.583Z,92.80
2018-06-07T05:16:58.690Z,92.70
2018-06-07T05:19:27.633Z,92.80
2018-06-07T05:21:56.563Z,92.90
2018-06-07T05:24:25.511Z,92.70
2018-06-07T05:26:54.501Z,92.60
2018-06-07T05:29:23.479Z,92.50
2018-06-07T05:31:52.430Z,92.60
2018-06-07T05:34:21.360Z,92.50
2018-06-07T05:39:18.762Z,92.70
2018-06-07T05:41:47.755Z,92.60
2018-06-07T05:44:16.876Z,92.40
2018-06-07T05:46:46.125Z,92.70
2018-06-07T05:49:15.052Z,92.50
2018-06-07T05:51:44.000Z,92.60
2018-06-07T05:54:12.874Z,93.10
2018-06-07T05:56:41.967Z,92.40
2018-06-07T05:59:10.889Z,92.60
2018-06-07T06:01:39.957Z,92.40
2018-06-07T06:04:09.028Z,92.70
2018-06-07T06:06:38.035Z,92.80
2018-06-07T06:09:07.594Z,92.30
2018-06-07T06:11:43.352Z,92.30
2018-06-07T06:14:27.900Z,92.20
2018-06-07T06:17:31.196Z,91.60
2018-06-07T06:20:00.190Z,91.00
2018-06-07T06:22:29.232Z,91.20
2018-06-07T06:24:58.202Z,90.90
2018-06-07T06:27:27.188Z,91.10
2018-06-07T06:29:56.099Z,90.70
2018-06-07T06:32:25.082Z,90.60
2018-06-07T06:38:31.140Z,90.40
2018-06-07T06:41:00.575Z,90.60
2018-06-07T06:43:30.575Z,90.50
2018-06-07T06:45:59.630Z,90.60
2018-06-07T06:48:28.658Z,90.10
2018-06-07T06:50:57.739Z,90.00
2018-06-07T06:53:26.765Z,90.20
2018-06-07T06:55:55.955Z,89.50
2018-06-07T06:58:24.963Z,89.20
2018-06-07T07:00:54.054Z,90.00
2018-06-07T07:03:23.182Z,89.40
2018-06-07T07:05:52.179Z,89.50
2018-06-07T07:08:21.065Z,89.00
2018-06-07T07:10:50.219Z,89.90
2018-06-07T07:13:19.337Z,89.10
2018-06-07T07:15:52.375Z,90.00
2018-06-07T07:18:22.500Z,90.20
2018-06-07T07:20:51.442Z,90.10
2018-06-07T07:23:20.474Z,90.00
2018-06-07T07:25:49.341Z,90.50
2018-06-07T07:28:18.362Z,90.40
2018-06-07T07:30:50.178Z,90.30
2018-06-07T07:33:19.155Z,90.40
2018-06-07T07:35:48.114Z,90.40
2018-06-07T07:38:17.176Z,90.30
2018-06-07T07:40:46.118Z,90.50
2018-06-07T07:43:15.051Z,90.40
2018-06-07T07:45:44.085Z,90.50
2018-06-07T07:48:13.116Z,90.70
2018-06-07T07:50:42.047Z,90.00
2018-06-07T07:53:11.109Z,90.30
2018-06-07T07:55:40.071Z,90.00
2018-06-07T07:58:09.041Z,89.50
2018-06-07T08:00:38.010Z,89.40
2018-06-07T08:03:06.954Z,89.60
2018-06-07T08:05:35.986Z,89.60
2018-06-07T08:08:04.942Z,88.90
2018-06-07T08:10:33.875Z,89.20
2018-06-07T08:13:02.918Z,90.00
2018-06-07T08:15:31.900Z,89.20
2018-06-07T08:18:00.824Z,89.70
2018-06-07T08:20:29.739Z,89.10
2018-06-07T08:22:58.730Z,88.70
2018-06-07T08:25:27.867Z,89.50
2018-06-07T08:27:56.806Z,88.20
2018-06-07T08:30:27.331Z,87.90
2018-06-07T08:32:57.729Z,88.20
2018-06-07T08:35:26.640Z,88.60
2018-06-07T08:37:55.614Z,88.20
2018-06-07T08:40:24.711Z,88.70
2018-06-07T08:42:53.725Z,87.90
2018-06-07T08:45:22.673Z,87.90
2018-06-07T08:47:51.658Z,87.60
2018-06-07T08:50:20.641Z,87.70
2018-06-07T08:52:49.615Z,87.10
2018-06-07T08:55:18.572Z,86.40
2018-06-07T08:57:47.628Z,85.50
2018-06-07T09:00:16.714Z,84.60
2018-06-07T09:05:14.073Z,85.20
2018-06-07T09:07:43.023Z,85.20
2018-06-07T09:10:12.201Z,84.60
2018-06-07T09:12:41.154Z,83.90
2018-06-07T09:15:10.351Z,83.60
2018-06-07T09:17:39.476Z,84.20
2018-06-07T09:20:08.414Z,83.40
2018-06-07T09:22:37.529Z,84.80
2018-06-07T09:25:06.530Z,85.40
2018-06-07T09:27:35.453Z,82.90
2018-06-07T09:30:04.405Z,83.40
2018-06-07T09:32:33.349Z,83.50
2018-06-07T09:35:02.326Z,83.40
2018-06-07T09:37:31.356Z,82.50
2018-06-07T09:40:00.347Z,83.10
2018-06-07T09:42:29.274Z,82.50
2018-06-07T09:44:58.249Z,81.80
2018-06-07T09:47:27.167Z,82.10
2018-06-07T09:49:56.114Z,82.50
2018-06-07T09:52:25.034Z,81.50
2018-06-07T09:54:54.037Z,81.20
2018-06-07T09:57:23.062Z,79.60
2018-06-07T09:59:51.990Z,80.40
2018-06-07T10:02:21.138Z,80.30
2018-06-07T10:04:50.070Z,79.60
2018-06-07T10:07:18.986Z,79.10
2018-06-07T10:09:47.949Z,79.20
2018-06-07T10:12:16.888Z,79.70
2018-06-07T10:14:45.809Z,79.60
2018-06-07T10:17:14.758Z,78.50
2018-06-07T10:22:12.195Z,78.10
2018-06-07T10:24:41.138Z,78.30
2018-06-07T10:27:10.086Z,77.00
2018-06-07T10:29:39.017Z,76.90
2018-06-07T10:32:07.974Z,76.50
2018-06-07T10:34:36.919Z,77.50
2018-06-07T10:37:05.957Z,76.00
2018-06-07T10:39:35.013Z,76.50
2018-06-07T10:42:04.083Z,76.60
2018-06-07T10:44:33.010Z,76.10
2018-06-07T10:47:01.978Z,75.30
2018-06-07T10:49:30.922Z,75.40
2018-06-07T10:52:00.104Z,73.40
2018-06-07T10:54:29.035Z,74.70
2018-06-07T10:56:58.094Z,76.10
2018-06-07T11:01:55.660Z,76.60
2018-06-07T11:04:24.616Z,77.20
2018-06-07T11:09:22.034Z,76.40
2018-06-07T11:11:51.004Z,76.00
2018-06-07T11:14:20.116Z,76.50
2018-06-07T11:16:49.024Z,76.10
2018-06-07T11:21:46.470Z,74.30
2018-06-07T11:24:15.457Z,74.90
2018-06-07T11:26:44.650Z,74.10
2018-06-07T11:29:14.596Z,73.70
2018-06-07T11:31:43.695Z,72.10
2018-06-07T11:34:13.466Z,72.80
2018-06-07T11:36:42.466Z,72.60
2018-06-07T11:39:11.638Z,71.70
2018-06-07T11:41:40.674Z,71.30
2018-06-07T11:44:09.662Z,71.30
2018-06-07T11:46:38.739Z,71.30
2018-06-07T11:49:07.696Z,71.50
2018-06-07T11:51:36.594Z,70.40
2018-06-07T11:54:05.748Z,69.20
2018-06-07T11:56:34.754Z,69.60
2018-06-07T11:59:03.734Z,70.80
2018-06-07T12:01:32.719Z,71.40
2018-06-07T12:04:01.725Z,71.20
2018-06-07T12:06:30.675Z,70.60
2018-06-07T12:08:59.698Z,69.70
2018-06-07T12:11:28.634Z,68.50
2018-06-07T12:13:57.629Z,69.40
2018-06-07T12:16:26.658Z,66.70
2018-06-07T12:18:55.595Z,68.40
2018-06-07T12:21:24.514Z,68.40
2018-06-07T12:23:53.522Z,70.40
2018-06-07T12:26:22.613Z,71.10
2018-06-07T12:28:51.557Z,70.00
2018-06-07T12:31:20.484Z,69.90
2018-06-07T12:33:49.502Z,69.70
2018-06-07T12:36:18.585Z,69.90
2018-06-07T12:38:47.567Z,69.40
2018-06-07T12:41:16.471Z,70.60
2018-06-07T12:43:45.566Z,69.30
2018-06-07T12:46:14.514Z,68.30
2018-06-07T12:48:43.587Z,68.40
2018-06-07T12:51:12.592Z,67.90
2018-06-07T12:53:41.539Z,68.20
2018-06-07T12:58:39.059Z,68.60
2018-06-07T13:01:07.976Z,69.90
2018-06-07T13:03:36.911Z,68.70
2018-06-07T13:06:06.245Z,68.90
2018-06-07T13:08:35.198Z,68.70
2018-06-07T13:11:04.341Z,67.80
2018-06-07T13:13:33.334Z,67.00
2018-06-07T13:16:02.328Z,67.30
2018-06-07T13:18:31.396Z,66.00
2018-06-07T13:21:00.442Z,67.00
2018-06-07T13:23:29.418Z,67.50
2018-06-07T13:25:58.419Z,67.00
2018-06-07T13:28:27.346Z,66.70
2018-06-07T13:30:56.290Z,65.90
2018-06-07T13:33:25.382Z,66.40
2018-06-07T13:35:54.577Z,67.50
2018-06-07T13:38:23.517Z,67.10
2018-06-07T13:40:52.462Z,64.60
2018-06-07T13:43:21.495Z,62.10
2018-06-07T13:45:50.441Z,64.00
2018-06-07T13:48:19.420Z,64.60
2018-06-07T13:50:48.403Z,65.20
2018-06-07T13:53:17.369Z,65.20
2018-06-07T13:55:46.322Z,64.20
2018-06-07T13:58:15.288Z,65.70
2018-06-07T14:00:44.334Z,66.90
2018-06-07T14:03:13.410Z,65.70
2018-06-07T14:05:43.287Z,64.80
2018-06-07T14:08:12.301Z,64.30
2018-06-07T14:10:41.570Z,65.60
2018-06-07T14:13:11.587Z,64.60
2018-06-07T14:15:40.710Z,65.10
2018-06-07T14:18:09.642Z,64.10
2018-06-07T14:20:38.618Z,65.80
2018-06-07T14:23:07.578Z,65.00
2018-06-07T14:25:36.527Z,64.30
2018-06-07T14:28:05.620Z,64.80
2018-06-07T14:30:34.696Z,64.00
2018-06-07T14:33:04.073Z,64.10
2018-06-07T14:35:33.113Z,65.10
2018-06-07T14:38:02.145Z,65.30
2018-06-07T14:40:31.115Z,65.60
2018-06-07T14:43:00.363Z,65.60
2018-06-07T14:45:29.594Z,65.50
2018-06-07T14:47:58.722Z,65.30
2018-06-07T14:50:27.650Z,65.20
2018-06-07T14:52:57.239Z,65.60
2018-06-07T14:55:27.463Z,66.60
2018-06-07T14:57:56.542Z,65.60
2018-06-07T15:02:53.971Z,65.50
2018-06-07T15:05:23.008Z,67.00
2018-06-07T15:07:52.139Z,66.80
2018-06-07T15:10:21.390Z,67.60
2018-06-07T15:12:50.387Z,68.90
2018-06-07T15:15:19.331Z,68.00
2018-06-07T15:17:48.504Z,68.30
2018-06-07T15:20:17.460Z,67.90
2018-06-07T15:22:46.473Z,67.10
2018-06-07T15:25:15.424Z,68.00
2018-06-07T15:27:44.443Z,68.00
2018-06-07T15:32:41.853Z,68.10
2018-06-07T15:35:10.825Z,67.50
2018-06-07T15:37:39.828Z,67.30
2018-06-07T15:40:09.009Z,67.40
2018-06-07T15:45:06.548Z,68.30
2018-06-07T15:47:35.514Z,68.20
2018-06-07T15:50:04.538Z,71.80
2018-06-07T15:52:33.614Z,68.80
2018-06-07T15:55:02.583Z,68.40
2018-06-07T15:57:31.771Z,68.10
2018-06-07T16:00:00.987Z,68.90
2018-06-07T16:02:30.054Z,68.00
2018-06-07T16:04:58.993Z,68.10
2018-06-07T16:07:28.372Z,68.90
2018-06-07T16:09:57.473Z,68.50
2018-06-07T16:12:27.010Z,68.90
2018-06-07T16:14:56.087Z,67.90
2018-06-07T16:17:25.075Z,68.80
2018-06-07T16:19:54.192Z,67.60
2018-06-07T16:22:23.157Z,67.10
2018-06-07T16:24:52.162Z,65.70
2018-06-07T16:27:21.170Z,65.00
2018-06-07T16:32:18.724Z,65.50
2018-06-07T16:34:47.794Z,64.60
2018-06-07T16:37:16.826Z,64.90
2018-06-07T16:39:45.889Z,65.50
2018-06-07T16:42:15.230Z,65.30
2018-06-07T16:44:44.163Z,63.70
2018-06-07T16:47:13.372Z,64.50
2018-06-07T16:49:42.334Z,62.80
2018-06-07T16:52:11.240Z,64.50
2018-06-07T16:54:40.463Z,61.80
2018-06-07T16:57:09.477Z,63.30
2018-06-07T16:59:38.453Z,63.50
2018-06-07T17:02:07.494Z,64.70
2018-06-07T17:04:36.485Z,65.10
2018-06-07T17:07:05.453Z,67.60
2018-06-07T17:09:34.478Z,67.60
2018-06-07T17:12:03.542Z,68.80
2018-06-07T17:14:32.685Z,69.50
2018-06-07T17:17:02.310Z,69.80
2018-06-07T17:19:31.348Z,70.40
2018-06-07T17:22:00.311Z,70.80
2018-06-07T17:26:57.839Z,69.00
2018-06-07T17:29:26.983Z,71.40
2018-06-07T17:31:56.074Z,74.20
2018-06-07T17:34:25.063Z,78.60
2018-06-07T17:36:54.028Z,81.30
2018-06-07T17:39:23.028Z,83.20
2018-06-07T17:41:52.036Z,84.60
2018-06-07T17:44:21.058Z,86.00
2018-06-07T17:46:50.192Z,85.70
2018-06-07T17:49:19.158Z,86.60
2018-06-07T17:51:48.326Z,86.20
2018-06-07T17:54:17.381Z,86.60
2018-06-07T17:56:46.359Z,87.10
2018-06-07T17:59:15.417Z,85.00
2018-06-07T18:01:44.421Z,84.80
2018-06-07T18:04:13.487Z,85.40
2018-06-07T18:06:42.590Z,85.70
2018-06-07T18:09:11.569Z,85.80
2018-06-07T18:11:40.474Z,85.70
2018-06-07T18:16:37.890Z,85.80
2018-06-07T18:19:06.906Z,88.70
2018-06-07T18:21:35.915Z,91.00
2018-06-07T18:24:04.864Z,91.60
2018-06-07T18:26:33.843Z,91.80
2018-06-07T18:29:03.004Z,92.40
2018-06-07T18:31:32.035Z,92.90
2018-06-07T18:34:01.080Z,93.30
2018-06-07T18:36:30.044Z,93.90
2018-06-07T18:38:58.975Z,93.80
2018-06-07T18:43:56.549Z,92.90
2018-06-07T18:46:25.551Z,92.70
2018-06-07T18:48:54.529Z,92.70
2018-06-07T18:51:23.449Z,94.60
2018-06-07T18:53:52.617Z,94.90
2018-06-07T18:56:21.651Z,94.70
2018-06-07T18:58:50.739Z,94.70
2018-06-07T19:01:19.732Z,94.50
2018-06-07T19:03:48.782Z,93.90
2018-06-07T19:06:17.690Z,94.10
2018-06-07T19:08:46.674Z,93.90
2018-06-07T19:11:15.970Z,93.90
2018-06-07T19:13:44.953Z,93.90
2018-06-07T19:16:14.078Z,94.20
2018-06-07T19:18:43.022Z,94.70
2018-06-07T19:21:12.066Z,94.70
2018-06-07T19:23:41.119Z,95.60
2018-06-07T19:26:10.195Z,95.90
2018-06-07T19:28:39.191Z,95.60
2018-06-07T19:31:08.129Z,94.80
2018-06-07T19:36:05.991Z,94.40
2018-06-07T19:41:03.490Z,94.50
2018-06-07T19:43:32.477Z,95.10
2018-06-07T19:46:01.450Z,95.10
2018-06-07T19:48:30.396Z,95.30
2018-06-07T19:50:59.430Z,95.30
2018-06-07T19:55:56.849Z,94.70
2018-06-07T19:58:25.817Z,95.00
2018-06-07T20:00:54.874Z,95.50
2018-06-07T20:03:23.892Z,96.90
2018-06-07T20:05:52.880Z,97.20
2018-06-07T20:08:21.975Z,97.40
2018-06-07T20:10:50.981Z,97.50
2018-06-07T20:13:20.240Z,97.70
2018-06-07T20:18:17.749Z,98.30
2018-06-07T20:20:46.738Z,98.10
2018-06-07T20:23:17.812Z,98.40
2018-06-07T20:25:46.855Z,97.80
2018-06-07T20:28:15.910Z,97.70
2018-06-07T20:30:44.848Z,97.60
2018-06-07T20:33:13.758Z,97.90
2018-06-07T20:35:42.945Z,97.80
2018-06-07T20:38:16.825Z,98.20
2018-06-07T20:40:46.028Z,98.40
2018-06-07T20:43:16.095Z,98.50
2018-06-07T20:45:45.185Z,98.00
2018-06-07T20:48:14.091Z,99.00
2018-06-07T20:50:43.590Z,98.80
2018-06-07T20:53:12.527Z,98.90
2018-06-07T20:55:41.525Z,99.40
2018-06-07T20:58:10.728Z,99.80
2018-06-07T21:00:39.685Z,99.70
2018-06-07T21:03:08.825Z,99.90
2018-06-07T21:05:37.826Z,99.80
2018-06-07T21:08:06.902Z,99.90
2018-06-07T21:10:35.880Z,99.80
2018-06-07T21:15:42.883Z,99.80
2018-06-07T21:18:11.830Z,99.90
2018-06-07T21:20:40.857Z,99.90
2018-06-07T21:23:10.106Z,99.90
2018-06-07T21:25:39.133Z,99.90
2018-06-07T21:28:08.088Z,99.90
2018-06-07T21:30:37.014Z,99.90
2018-06-07T21:35:34.495Z,99.90
2018-06-07T21:38:03.575Z,99.90
2018-06-07T21:40:32.513Z,99.90
2018-06-07T21:43:01.498Z,99.90
2018-06-07T21:45:30.652Z,99.90
2018-06-07T21:47:59.737Z,99.90
2018-06-07T21:50:28.962Z,99.90
2018-06-07T21:52:57.918Z,99.90
2018-06-07T21:55:27.081Z,99.90
2018-06-07T21:57:56.143Z,99.90
2018-06-07T22:02:54.122Z,99.90
2018-06-07T22:05:23.165Z,99.90
2018-06-07T22:07:52.133Z,99.90
2018-06-07T22:10:21.114Z,99.90
2018-06-07T22:12:50.166Z,99.90
2018-06-07T22:15:19.134Z,99.90
2018-06-07T22:17:48.033Z,99.90
2018-06-07T22:20:17.178Z,99.90
2018-06-07T22:22:46.221Z,99.90
2018-06-07T22:25:15.249Z,99.90
2018-06-07T22:30:12.706Z,99.90
2018-06-07T22:32:41.686Z,99.90
2018-06-07T22:35:10.670Z,99.90
2018-06-07T22:37:39.590Z,99.90
2018-06-07T22:40:08.615Z,99.90
2018-06-07T22:42:37.519Z,99.90
2018-06-07T22:48:09.874Z,99.90
2018-06-07T22:50:39.850Z,99.90
2018-06-07T22:53:16.186Z,99.90
2018-06-07T22:55:45.129Z,99.90
2018-06-07T22:58:14.205Z,99.90
2018-06-07T23:00:43.279Z,99.90
2018-06-07T23:03:12.259Z,99.90
2018-06-07T23:05:41.206Z,99.90
2018-06-07T23:08:10.184Z,99.90
2018-06-07T23:10:39.081Z,99.90
2018-06-07T23:13:08.166Z,99.90
2018-06-07T23:15:37.111Z,99.90
2018-06-07T23:18:06.270Z,99.90
2018-06-07T23:20:35.365Z,99.90
2018-06-07T23:23:04.576Z,99.90
2018-06-07T23:25:33.546Z,99.90
2018-06-07T23:30:31.073Z,99.90
2018-06-07T23:33:00.098Z,99.90
2018-06-07T23:35:29.209Z,99.90
2018-06-07T23:37:58.467Z,99.90
2018-06-07T23:40:27.514Z,99.90
2018-06-07T23:42:56.505Z,99.90
2018-06-07T23:45:25.485Z,99.90
2018-06-07T23:50:23.019Z,99.90
2018-06-07T23:52:52.142Z,99.90
2018-06-07T23:55:21.169Z,99.90
2018-06-07T23:57:50.401Z,99.90
